Time;durP1;ratioP1;P1;durP2;ratioP2;P2;SDS_P1;SDS_P2;PMS_P1;PMS_P2;Temp;Humidity;BMP_temperature;BMP_pressure;BME280_temperature;BME280_humidity;BME280_pressure;Samples;Min_cycle;Max_cycle;Signal;HPM_P1;HPM_P2
2023/04/16 00:01:53;;;;;;;10.17;2.30;;;;;;;7.10;100.00;102007.72;5118838;27;20355;-88
2023/04/16 00:04:19;;;;;;;8.43;2.40;;;;;;;7.09;100.00;102016.84;5135775;27;20276;-88
2023/04/16 00:07:05;;;;;;;7.00;2.50;;;;;;;7.07;100.00;102016.16;5101536;27;20035;-88
2023/04/16 00:09:33;;;;;;;6.32;2.25;;;;;;;7.07;100.00;102013.44;5118834;27;20062;-88
2023/04/16 00:12:01;;;;;;;7.40;2.47;;;;;;;7.07;100.00;102014.31;5118066;27;20047;-88
2023/04/16 00:14:28;;;;;;;8.82;2.42;;;;;;;7.11;100.00;102015.66;5118702;27;20475;-89
2023/04/16 00:16:53;;;;;;;9.27;2.58;;;;;;;7.16;100.00;102025.94;5101515;27;20039;-89
2023/04/16 00:19:21;;;;;;;6.20;2.10;;;;;;;7.13;100.00;102018.19;5114747;28;20096;-88
2023/04/16 00:21:47;;;;;;;6.18;2.30;;;;;;;7.13;100.00;102018.19;5115063;28;20039;-88
2023/04/16 00:24:15;;;;;;;8.17;2.70;;;;;;;7.16;100.00;102020.56;5114728;28;20027;-88
2023/04/16 00:26:45;;;;;;;8.98;2.50;;;;;;;7.12;100.00;102024.63;5116340;28;20031;-89
2023/04/16 00:29:11;;;;;;;7.10;2.45;;;;;;;7.10;100.00;102019.38;5116277;28;20019;-89
2023/04/16 00:31:39;;;;;;;8.05;2.40;;;;;;;7.09;100.00;102014.97;5114837;28;20035;-89
2023/04/16 00:34:07;;;;;;;12.10;2.78;;;;;;;7.07;100.00;102016.16;5115106;28;20036;-88
2023/04/16 00:36:43;;;;;;;6.18;3.10;;;;;;;7.09;100.00;102020.38;5114344;28;20032;-89
2023/04/16 00:39:26;;;;;;;13.30;2.85;;;;;;;7.10;100.00;102015.81;5116467;28;20036;-89
2023/04/16 00:42:07;;;;;;;9.43;2.83;;;;;;;7.10;100.00;102013.13;5114932;28;20092;-88
2023/04/16 00:44:35;;;;;;;10.82;2.90;;;;;;;7.12;100.00;102020.06;5083152;28;20156;-89
2023/04/16 00:47:02;;;;;;;6.72;3.13;;;;;;;7.16;100.00;102016.03;5114164;28;20544;-89
2023/04/16 00:49:30;;;;;;;9.60;2.97;;;;;;;7.18;100.00;102016.69;5114289;28;20047;-88
2023/04/16 00:52:01;;;;;;;5.57;3.05;;;;;;;7.19;100.00;102021.09;5114148;28;20114;-89
2023/04/16 00:54:45;;;;;;;9.90;3.15;;;;;;;7.19;100.00;102012.16;5115865;28;20028;-88
2023/04/16 00:57:28;;;;;;;9.07;2.78;;;;;;;7.22;100.00;102019.91;5114524;28;20043;-89
2023/04/16 01:00:00;;;;;;;6.25;2.90;;;;;;;7.23;100.00;102010.78;5114933;28;20168;-89
2023/04/16 01:02:26;;;;;;;8.18;3.15;;;;;;;7.27;100.00;102014.03;5114339;28;20479;-89
2023/04/16 01:04:54;;;;;;;7.78;3.22;;;;;;;7.30;100.00;102011.81;5113585;28;20034;-88
2023/04/16 01:07:27;;;;;;;14.70;3.40;;;;;;;7.28;100.00;102000.34;5114073;28;20070;-89
2023/04/16 01:13:00;;;;;;;13.32;4.38;;;;;;;7.28;100.00;102003.06;5108796;28;20368;-89
2023/04/16 01:15:29;;;;;;;12.07;3.60;;;;;;;7.27;100.00;102011.31;5097919;28;20032;-89
2023/04/16 01:17:57;;;;;;;11.90;3.85;;;;;;;7.28;100.00;102003.06;5114063;28;20031;-89
2023/04/16 01:20:26;;;;;;;7.45;3.50;;;;;;;7.31;100.00;102005.44;5114942;28;20043;-89
2023/04/16 01:22:51;;;;;;;8.85;3.47;;;;;;;7.37;100.00;102012.84;5113959;28;20038;-89
2023/04/16 01:25:19;;;;;;;12.18;4.05;;;;;;;7.35;100.00;102000.53;5113717;28;20036;-89
2023/04/16 01:27:57;;;;;;;12.17;3.93;;;;;;;7.36;100.00;102003.06;5114040;28;20031;-88
2023/04/16 01:30:31;;;;;;;9.85;3.70;;;;;;;7.37;100.00;102002.06;5114853;28;20031;-89
2023/04/16 01:32:57;;;;;;;11.40;4.32;;;;;;;7.39;100.00;102010.00;5114826;28;20024;-89
2023/04/16 01:35:23;;;;;;;10.67;3.97;;;;;;;7.40;100.00;102005.41;5114738;28;20148;-88
2023/04/16 01:37:51;;;;;;;9.68;4.30;;;;;;;7.38;100.00;102009.16;5114935;28;20042;-89
2023/04/16 01:40:22;;;;;;;10.32;4.35;;;;;;;7.40;100.00;102010.81;5113583;28;20031;-89
2023/04/16 01:42:47;;;;;;;13.00;4.10;;;;;;;7.46;100.00;102015.59;5096870;28;20027;-89
2023/04/16 01:45:15;;;;;;;11.03;4.20;;;;;;;7.41;100.00;102008.00;5113203;28;20030;-89
2023/04/16 01:47:49;;;;;;;9.18;4.20;;;;;;;7.41;100.00;102018.78;5112969;28;20027;-89
2023/04/16 01:50:31;;;;;;;9.45;4.40;;;;;;;7.45;100.00;102019.28;5114114;28;20043;-89
2023/04/16 01:52:56;;;;;;;10.13;4.90;;;;;;;7.44;100.00;102020.28;5113523;28;20038;-89
2023/04/16 01:55:25;;;;;;;14.95;5.22;;;;;;;7.40;100.00;102018.94;5112887;28;20031;-89
2023/04/16 01:57:53;;;;;;;10.98;5.40;;;;;;;7.39;100.00;102015.38;5113320;28;20545;-89
2023/04/16 02:00:21;;;;;;;14.63;5.13;;;;;;;7.40;100.00;102010.81;5113391;28;20042;-89
2023/04/16 02:02:54;;;;;;;10.48;5.45;;;;;;;7.44;100.00;102013.06;5114661;28;20106;-89
2023/04/16 02:05:25;;;;;;;15.15;5.30;;;;;;;7.46;100.00;102012.88;5113438;28;20026;-89
2023/04/16 02:07:53;;;;;;;8.40;5.13;;;;;;;7.45;100.00;102011.19;5112792;28;20118;-89
2023/04/16 02:10:21;;;;;;;16.58;5.72;;;;;;;7.44;100.00;102010.34;5114392;28;20030;-89
2023/04/16 02:12:55;;;;;;;12.85;5.53;;;;;;;7.47;100.00;102014.56;5095762;28;20031;-89
2023/04/16 02:15:44;;;;;;;14.65;5.70;;;;;;;7.47;100.00;102012.72;5096205;28;20039;-89
2023/04/16 02:18:12;;;;;;;10.52;5.45;;;;;;;7.48;100.00;102005.44;5113796;28;20055;-89
2023/04/16 02:20:46;;;;;;;12.30;5.25;;;;;;;7.52;100.00;102004.94;5095612;28;20055;-89
2023/04/16 02:23:39;;;;;;;14.02;5.97;;;;;;;7.55;100.00;102007.31;5112657;28;20490;-89
2023/04/16 02:26:15;;;;;;;12.25;5.43;;;;;;;7.56;100.00;102005.47;5097283;28;20059;-89
2023/04/16 02:28:48;;;;;;;11.07;5.30;;;;;;;7.56;100.00;102005.47;5112664;28;20047;-89
2023/04/16 02:31:18;;;;;;;11.70;5.95;;;;;;;7.58;100.00;101998.03;5114303;28;20039;-89
2023/04/16 02:33:44;;;;;;;12.13;5.57;;;;;;;7.60;100.00;102014.06;5112634;28;20039;-88
2023/04/16 02:36:23;;;;;;;10.77;5.25;;;;;;;7.58;100.00;102002.59;5095198;28;20047;-89
2023/04/16 02:38:52;;;;;;;8.50;5.13;;;;;;;7.59;100.00;102012.38;5112891;28;20050;-89
2023/04/16 02:41:47;;;;;;;11.90;5.43;;;;;;;7.61;100.00;102016.59;5111304;28;20061;-89
2023/04/16 02:44:13;;;;;;;12.27;5.07;;;;;;;7.53;100.00;102003.94;5113215;28;20030;-92
2023/04/16 02:46:47;;;;;;;12.83;5.43;;;;;;;7.58;100.00;102002.59;5113195;28;20468;-92
2023/04/16 02:49:13;;;;;;;11.73;5.30;;;;;;;7.55;100.00;101999.22;5130473;28;20285;-92
2023/04/16 02:51:41;;;;;;;13.80;5.20;;;;;;;7.61;100.00;102011.19;5113104;28;20031;-92
2023/04/16 02:54:09;;;;;;;10.23;4.73;;;;;;;7.64;100.00;102018.13;5113611;28;20352;-92
2023/04/16 02:56:34;;;;;;;12.88;5.43;;;;;;;7.69;100.00;102027.44;5114856;28;20034;-92
2023/04/16 02:59:06;;;;;;;10.02;5.03;;;;;;;7.67;100.00;102021.34;5113410;28;20383;-92
2023/04/16 03:01:51;;;;;;;12.57;5.65;;;;;;;7.63;100.00;102017.31;5113892;28;20051;-92
2023/04/16 03:04:31;;;;;;;11.00;4.97;;;;;;;7.60;100.00;102020.31;5113751;28;20028;-92
2023/04/16 03:06:59;;;;;;;12.38;5.88;;;;;;;7.62;100.00;102015.59;5113242;28;20057;-92
2023/04/16 03:09:30;;;;;;;10.68;5.93;;;;;;;7.68;100.00;102027.59;5112811;28;20067;-92
2023/04/16 03:12:00;;;;;;;12.90;6.47;;;;;;;7.66;100.00;102021.50;5113498;28;20063;-91
2023/04/16 03:14:26;;;;;;;20.73;6.85;;;;;;;7.70;100.00;102025.56;5114178;28;20028;-91
2023/04/16 03:16:54;;;;;;;16.10;6.68;;;;;;;7.63;100.00;102021.84;5115140;28;20028;-92
2023/04/16 03:19:25;;;;;;;12.75;6.57;;;;;;;7.69;100.00;102035.53;5095519;28;20052;-92
2023/04/16 03:21:57;;;;;;;14.95;7.38;;;;;;;7.63;100.00;102021.84;5113709;28;20039;-92
2023/04/16 03:24:30;;;;;;;14.15;7.45;;;;;;;7.63;100.00;102028.09;5113215;28;20027;-92
2023/04/16 03:27:06;;;;;;;;;;;;;;;;;;;;;
2023/04/16 03:29:36;;;;;;;14.80;7.97;;;;;;;7.69;100.00;102042.78;5118981;28;20024;-92
2023/04/16 03:32:04;;;;;;;14.82;7.80;;;;;;;7.63;100.00;102038.03;5117209;28;20035;-92
2023/04/16 03:34:35;;;;;;;13.48;7.47;;;;;;;7.60;100.00;102027.59;5120483;28;20023;-92
2023/04/16 03:37:16;;;;;;;;;;;;;;;;;;;;;
2023/04/16 03:39:56;;;;;;;18.75;7.75;;;;;;;7.60;100.00;102031.13;5117634;28;20378;-92
2023/04/16 03:42:30;;;;;;;20.95;8.52;;;;;;;7.65;100.00;102047.69;5134483;27;20114;-92
2023/04/16 03:45:15;;;;;;;;;;;;;;;;;;;;;
2023/04/16 03:48:01;;;;;;;13.25;8.55;;;;;;;7.63;100.00;102048.84;5123909;28;20106;-92
2023/04/16 03:50:37;;;;;;;19.75;9.48;;;;;;;7.58;100.00;102032.31;5107585;28;20130;-92
2023/04/16 03:53:05;;;;;;;17.48;9.60;;;;;;;7.64;100.00;102043.28;5104219;28;20126;-92
2023/04/16 03:55:41;;;;;;;18.73;9.35;;;;;;;7.56;100.00;102029.78;5099377;28;20092;-92
2023/04/16 03:58:06;;;;;;;15.05;8.90;;;;;;;7.59;100.00;102028.59;5115967;28;20035;-92
2023/04/16 04:00:32;;;;;;;18.08;9.45;;;;;;;7.56;100.00;102029.78;5099336;28;20024;-92
2023/04/16 04:06:08;;;;;;;17.50;9.70;;;;;;;7.55;100.00;102039.72;5109714;28;20036;-92
2023/04/16 04:08:34;;;;;;;14.85;9.30;;;;;;;7.53;100.00;102028.25;5083525;28;20055;-92
2023/04/16 04:11:04;;;;;;;19.00;9.77;;;;;;;7.54;100.00;102034.47;5117595;28;20058;-92
2023/04/16 04:13:30;;;;;;;21.67;10.40;;;;;;;7.56;100.00;102040.59;5117140;28;20031;-92
2023/04/16 04:16:08;;;;;;;19.57;9.73;;;;;;;7.48;100.00;102027.88;5116488;28;20024;-92
2023/04/16 04:18:39;;;;;;;15.80;8.80;;;;;;;7.50;100.00;102035.81;5115187;28;20032;-92
2023/04/16 04:21:07;;;;;;;19.25;9.45;;;;;;;7.54;100.00;102040.75;5116631;28;20143;-91
2023/04/16 04:23:51;;;;;;;18.35;8.48;;;;;;;7.49;100.00;102035.00;5132861;27;20038;-92
2023/04/16 04:26:28;;;;;;;;;;;;;;;;;;;;;
2023/04/16 04:28:59;;;;;;;18.13;8.60;;;;;;;7.51;100.00;102035.69;5116578;28;20035;-92
2023/04/16 04:31:32;;;;;;;17.95;9.13;;;;;;;7.50;100.00;102035.81;5116266;28;20028;-92
2023/04/16 04:33:57;;;;;;;19.58;9.23;;;;;;;7.49;100.00;102051.19;5100490;28;20414;-92
2023/04/16 04:36:31;;;;;;;16.70;9.20;;;;;;;7.50;100.00;102039.38;5115074;28;20019;-92
2023/04/16 04:39:06;;;;;;;16.23;9.10;;;;;;;7.51;100.00;102037.53;5132144;27;20067;-92
2023/04/16 04:41:58;;;;;;;20.65;9.13;;;;;;;7.51;100.00;102043.78;5115679;28;20030;-92
2023/04/16 04:44:23;;;;;;;15.00;8.18;;;;;;;7.50;100.00;102050.19;5116898;28;20066;-92
2023/04/16 04:47:22;;;;;;;19.27;9.30;;;;;;;7.51;100.00;102041.09;5115412;28;20031;-92
2023/04/16 04:50:10;;;;;;;21.92;9.23;;;;;;;7.50;100.00;102062.81;5126248;27;20035;-92
2023/04/16 04:52:45;;;;;;;21.40;9.43;;;;;;;7.46;100.00;102051.53;5100631;28;20027;-92
2023/04/16 04:55:13;;;;;;;18.17;9.30;;;;;;;7.52;100.00;102063.53;5115215;28;20122;-93
2023/04/16 04:57:51;;;;;;;19.42;9.02;;;;;;;7.53;100.00;102057.13;5117729;28;20037;-91
2023/04/16 05:00:18;;;;;;;21.00;9.20;;;;;;;7.51;100.00;102059.13;5116205;28;20027;-91
2023/04/16 05:02:51;;;;;;;22.73;9.35;;;;;;;7.50;100.00;102061.00;5117060;28;20514;-90
2023/04/16 05:05:24;;;;;;;19.23;9.02;;;;;;;7.49;100.00;102056.59;5100533;28;20032;-90
2023/04/16 05:08:00;;;;;;;18.53;8.93;;;;;;;7.51;100.00;102062.69;5116481;28;20030;-92
2023/04/16 05:10:31;;;;;;;21.27;9.27;;;;;;;7.53;100.00;102059.81;5114688;28;20096;-91
2023/04/16 05:13:06;;;;;;;19.75;9.10;;;;;;;7.55;100.00;102066.72;5131628;27;20379;-91
2023/04/16 05:16:00;;;;;;;17.75;9.82;;;;;;;7.55;100.00;102058.63;5082683;28;20406;-91
2023/04/16 05:18:33;;;;;;;18.33;8.40;;;;;;;7.57;100.00;102068.44;5099284;28;20023;-91
2023/04/16 05:21:01;;;;;;;23.60;10.07;;;;;;;7.50;100.00;102063.69;5114530;28;20063;-92
2023/04/16 05:26:30;;;;;;;17.02;9.10;;;;;;;7.52;100.00;102075.16;5115638;28;20095;-94
2023/04/16 05:29:11;;;;;;;16.73;9.02;;;;;;;7.60;100.00;102068.94;5132126;27;20027;-92
2023/04/16 05:31:41;;;;;;;19.02;8.73;;;;;;;7.58;100.00;102072.81;5114652;28;20447;-91
2023/04/16 05:34:11;;;;;;;22.37;9.40;;;;;;;7.54;100.00;102072.28;5115589;28;20035;-91
2023/04/16 05:36:41;;;;;;;20.00;9.05;;;;;;;7.53;100.00;102066.06;5114072;28;20027;-90
2023/04/16 05:39:07;;;;;;;23.75;9.13;;;;;;;7.63;100.00;102086.66;5114094;28;20030;-89
2023/04/16 05:41:44;;;;;;;17.57;8.57;;;;;;;7.62;100.00;102080.44;5114444;28;20019;-89
2023/04/16 05:44:16;;;;;;;19.00;8.48;;;;;;;7.64;100.00;102089.19;5097038;28;20116;-89
2023/04/16 05:46:45;;;;;;;21.00;8.48;;;;;;;7.67;100.00;102088.03;5097537;28;20486;-90
2023/04/16 05:49:20;;;;;;;22.55;9.50;;;;;;;7.63;100.00;102092.94;5114358;28;20032;-90
2023/04/16 05:51:50;;;;;;;18.58;8.90;;;;;;;7.72;100.00;102105.44;5114916;28;20482;-91
2023/04/16 05:54:18;;;;;;;17.00;8.27;;;;;;;7.69;100.00;102097.66;5099819;28;20472;-91
2023/04/16 05:56:49;;;;;;;19.00;8.15;;;;;;;7.70;100.00;102093.09;5117165;28;20163;-91
2023/04/16 05:59:18;;;;;;;17.83;8.60;;;;;;;7.70;100.00;102101.22;5116600;28;20526;-91
2023/04/16 06:01:48;;;;;;;22.02;8.73;;;;;;;7.67;100.00;102098.84;5113924;28;20106;-88
2023/04/16 06:04:16;;;;;;;19.55;8.50;;;;;;;7.71;100.00;102109.16;5098027;28;20027;-90
2023/04/16 06:06:46;;;;;;;16.53;8.57;;;;;;;7.69;100.00;102103.06;5113336;28;20028;-89
2023/04/16 06:09:12;;;;;;;20.25;8.60;;;;;;;7.71;100.00;102097.50;5113591;28;20032;-89
2023/04/16 06:11:49;;;;;;;18.35;9.40;;;;;;;7.77;100.00;102110.34;5113884;28;20368;-88
2023/04/16 06:14:14;;;;;;;18.47;8.87;;;;;;;7.74;100.00;102105.28;5113440;28;20031;-89
2023/04/16 06:16:40;;;;;;;21.25;8.75;;;;;;;7.72;100.00;102102.75;5113307;28;20451;-89
2023/04/16 06:19:05;;;;;;;22.87;9.20;;;;;;;7.78;100.00;102109.34;5114601;28;20451;-89
2023/04/16 06:21:34;;;;;;;18.03;8.67;;;;;;;7.76;100.00;102110.50;5113813;28;20035;-89
2023/04/16 06:24:02;;;;;;;18.25;8.93;;;;;;;7.84;100.00;102102.41;5115235;28;20102;-89
2023/04/16 06:26:35;;;;;;;19.02;8.13;;;;;;;7.87;100.00;102111.03;5112743;28;20069;-88
2023/04/16 06:29:01;;;;;;;20.55;8.63;;;;;;;7.91;100.00;102119.66;5112780;28;20032;-88
2023/04/16 06:31:34;;;;;;;18.30;8.37;;;;;;;7.85;100.00;102112.22;5112901;28;20023;-88
2023/04/16 06:34:02;;;;;;;21.45;8.73;;;;;;;7.92;100.00;102117.81;5114405;28;20031;-89
2023/04/16 06:36:28;;;;;;;20.88;8.77;;;;;;;7.98;100.00;102125.25;5095984;28;20032;-88
2023/04/16 06:38:53;;;;;;;18.00;8.50;;;;;;;8.00;100.00;102129.47;5112475;28;20027;-89
2023/04/16 06:41:22;;;;;;;21.75;9.52;;;;;;;7.96;100.00;102124.53;5112344;28;20463;-88
2023/04/16 06:43:51;;;;;;;20.85;9.25;;;;;;;8.02;100.00;102119.34;5112654;28;20077;-89
2023/04/16 06:46:19;;;;;;;20.27;8.73;;;;;;;8.01;100.00;102122.19;5112845;28;20486;-88
2023/04/16 06:48:44;;;;;;;20.65;9.10;;;;;;;8.08;100.00;102139.44;5112363;28;20129;-88
2023/04/16 06:51:10;;;;;;;19.63;8.53;;;;;;;8.13;100.00;102136.25;5129675;28;20539;-88
2023/04/16 06:53:38;;;;;;;23.08;9.93;;;;;;;8.07;100.00;102127.81;5113093;28;20281;-89
2023/04/16 06:56:12;;;;;;;23.45;11.27;;;;;;;8.11;100.00;102136.41;5129818;28;20472;-87
2023/04/16 06:58:37;;;;;;;21.45;8.52;;;;;;;8.17;100.00;102141.13;5115029;28;20031;-88
2023/04/16 07:01:10;;;;;;;19.00;8.87;;;;;;;8.26;100.00;102152.81;5113568;28;20027;-89
2023/04/16 07:03:46;;;;;;;21.85;9.05;;;;;;;8.19;100.00;102146.38;5104727;28;20487;-92
2023/04/16 07:06:21;;;;;;;;;;;;;;;;;;;;;
2023/04/16 07:09:00;;;;;;;;;;;;;;;;;;;;;
2023/04/16 07:11:36;;;;;;;20.98;9.13;;;;;;;8.22;100.00;102149.59;5126676;28;20126;-91
2023/04/16 07:14:01;;;;;;;22.15;9.02;;;;;;;8.19;100.00;102151.78;5141949;27;20027;-94
2023/04/16 07:16:39;;;;;;;;;;;;;;;;;;;;;
2023/04/16 07:19:15;;;;;;;24.77;9.20;;;;;;;8.28;100.00;102155.34;5120235;28;20126;-92
2023/04/16 07:24:36;;;;;;;22.92;9.00;;;;;;;8.33;100.00;102164.66;5121957;28;20039;-93
2023/04/16 07:29:51;;;;;;;22.00;9.55;;;;;;;8.37;100.00;102167.84;5124643;28;20066;-91
2023/04/16 07:32:16;;;;;;;24.73;10.33;;;;;;;8.31;100.00;102163.13;5121564;28;20027;-92
2023/04/16 07:34:44;;;;;;;18.67;9.73;;;;;;;8.35;100.00;102164.47;5122044;28;20032;-93
2023/04/16 07:37:20;;;;;;;25.97;9.50;;;;;;;8.43;100.00;102178.84;5104416;28;20059;-93
2023/04/16 07:39:48;;;;;;;21.33;10.70;;;;;;;8.41;100.00;102171.91;5120953;28;20028;-93
2023/04/16 07:42:16;;;;;;;21.75;10.10;;;;;;;8.49;100.00;102173.78;5118844;28;20039;-92
2023/04/16 07:44:46;;;;;;;26.63;10.10;;;;;;;8.52;100.00;102193.25;5120739;28;20035;-93
2023/04/16 07:47:16;;;;;;;24.05;10.52;;;;;;;8.50;100.00;102175.50;5103189;28;20048;-93
2023/04/16 07:49:58;;;;;;;22.03;10.23;;;;;;;8.54;100.00;102182.25;5120213;28;20123;-93
2023/04/16 07:52:25;;;;;;;29.63;10.57;;;;;;;8.56;100.00;102182.94;5104737;28;20043;-94
2023/04/16 07:54:57;;;;;;;25.27;10.18;;;;;;;8.58;100.00;102187.16;5120460;28;20027;-92
2023/04/16 07:57:27;;;;;;;27.40;10.63;;;;;;;8.60;100.00;102189.69;5121049;28;20036;-91
2023/04/16 08:00:03;;;;;;;25.40;10.32;;;;;;;8.70;100.00;102203.06;5101410;28;20024;-95
2023/04/16 08:03:06;;;;;;;30.43;10.80;;;;;;;8.62;100.00;102193.06;5126882;28;20032;-96
2023/04/16 08:05:45;;;;;;;30.80;10.98;;;;;;;8.63;100.00;102191.22;5098120;28;20055;-96
2023/04/16 08:08:20;;;;;;;27.48;10.63;;;;;;;8.71;100.00;102193.91;5120675;28;20059;-95
2023/04/16 08:10:57;;;;;;;28.98;11.02;;;;;;;8.76;100.00;102192.38;5119970;28;20027;-95
2023/04/16 08:13:40;;;;;;;;;;;;;;;;;;;;;
2023/04/16 08:16:14;;;;;;;28.80;10.60;;;;;;;8.80;100.00;102201.03;5117998;28;20114;-95
2023/04/16 08:18:49;;;;;;;27.85;11.48;;;;;;;8.80;100.00;102203.72;5113068;28;20053;-95
2023/04/16 08:21:19;;;;;;;27.92;11.65;;;;;;;8.81;100.00;102218.94;5117064;28;20079;-96
2023/04/16 08:23:45;;;;;;;27.02;11.07;;;;;;;8.80;100.00;102214.56;5100328;28;20047;-96
2023/04/16 08:26:23;;;;;;;31.40;11.07;;;;;;;8.93;100.00;102230.25;5117414;28;20118;-95
2023/04/16 08:28:56;;;;;;;29.23;11.20;;;;;;;8.96;100.00;102219.09;5119038;28;20544;-96
2023/04/16 08:31:47;;;;;;;25.15;11.10;;;;;;;8.97;100.00;102218.06;5105776;28;20032;-96
2023/04/16 08:34:23;;;;;;;28.23;10.73;;;;;;;8.98;100.00;102216.25;5109438;28;20060;-94
2023/04/16 08:36:53;;;;;;;26.93;11.10;;;;;;;8.97;100.00;102223.50;5116684;28;20123;-95
2023/04/16 08:39:41;;;;;;;27.00;10.43;;;;;;;9.00;100.00;102219.59;5117099;28;20047;-94
2023/04/16 08:42:39;;;;;;;29.52;11.85;;;;;;;9.05;100.00;102233.47;5118017;28;20031;-93
2023/04/16 08:45:42;;;;;;;27.45;12.02;;;;;;;9.14;100.00;102235.16;5110554;28;20044;-93
2023/04/16 08:48:23;;;;;;;;;;;;;;;;;;;;;
2023/04/16 08:50:52;;;;;;;24.40;10.43;;;;;;;9.14;100.00;102232.44;5128694;28;20096;-95
2023/04/16 08:53:38;;;;;;;;;;;;;;;;;;;;;
2023/04/16 08:56:29;;;;;;;25.20;10.95;;;;;;;9.16;100.00;102235.00;5123206;28;20114;-96
2023/04/16 08:59:35;;;;;;;25.60;10.68;;;;;;;9.24;100.00;102249.34;5123661;28;20479;-96
2023/04/16 09:05:58;;;;;;;24.70;11.07;;;;;;;9.34;100.00;102261.88;5128394;28;20035;-96
2023/04/16 09:08:46;;;;;;;34.30;11.45;;;;;;;9.24;100.00;102243.06;5126206;28;20118;-96
2023/04/16 09:11:24;;;;;;;28.58;10.25;;;;;;;9.36;100.00;102257.97;5118180;28;20039;-96
2023/04/16 09:14:01;;;;;;;26.85;10.88;;;;;;;9.32;100.00;102245.78;5116673;28;20039;-96
2023/04/16 09:16:39;;;;;;;26.40;10.50;;;;;;;9.36;100.00;102252.56;5099888;28;20040;-96
2023/04/16 09:19:28;;;;;;;27.30;10.67;;;;;;;9.34;100.00;102248.31;5115323;28;20051;-92
2023/04/16 09:21:53;;;;;;;28.63;11.27;;;;;;;9.42;100.00;102253.69;5093653;28;20066;-92
2023/04/16 09:27:30;;;;;;;27.75;11.05;;;;;;;9.63;100.00;102270.25;5095455;28;20032;-93
2023/04/16 09:29:56;;;;;;;24.25;10.80;;;;;;;9.61;100.00;102255.16;5077364;28;20032;-92
2023/04/16 09:32:30;;;;;;;24.47;11.20;;;;;;;9.74;100.00;102263.59;5077592;28;20119;-93
2023/04/16 09:34:58;;;;;;;26.45;10.68;;;;;;;9.75;100.00;102259.03;5095977;28;20020;-93
2023/04/16 09:37:33;;;;;;;20.30;10.38;;;;;;;9.78;100.00;102272.22;5077682;28;20047;-96
2023/04/16 09:40:16;;;;;;;25.43;10.83;;;;;;;9.81;100.00;102271.88;5077980;28;20079;-93
2023/04/16 09:43:02;;;;;;;25.67;10.77;;;;;;;9.87;100.00;102282.00;5078154;28;20410;-93
2023/04/16 09:46:14;;;;;;;27.17;11.68;;;;;;;9.77;100.00;102274.09;5069717;28;20036;-93
2023/04/16 09:49:03;;;;;;;22.10;9.70;;;;;;;9.76;100.00;102277.84;4993771;28;20116;-92
2023/04/16 09:51:36;;;;;;;24.30;10.57;;;;;;;9.78;100.00;102278.50;5004393;28;20038;-93
2023/04/16 09:54:16;;;;;;;;;;;;;;;;;;;;;
2023/04/16 09:56:46;;;;;;;24.83;10.40;;;;;;;9.75;100.00;102276.13;5098635;28;20236;-90
2023/04/16 09:59:32;;;;;;;;;;;;;;;;;;;;;
2023/04/16 10:02:16;;;;;;;24.40;10.88;;;;;;;9.78;100.00;102280.38;5094580;28;20024;-91
2023/04/16 10:05:15;;;;;;;;;;;;;;;;;;;;;
2023/04/16 10:07:43;;;;;;;24.53;10.23;;;;;;;9.81;100.00;102280.84;5094700;28;20482;-90
2023/04/16 10:10:09;;;;;;;23.13;10.75;;;;;;;9.78;100.00;102283.91;5075684;28;20085;-91
2023/04/16 10:15:38;;;;;;;24.08;10.75;;;;;;;9.76;100.00;102283.25;5095157;28;20043;-91
2023/04/16 10:18:10;;;;;;;23.67;11.20;;;;;;;9.74;100.00;102287.16;5094325;28;20103;-91
2023/04/16 10:20:40;;;;;;;25.90;12.10;;;;;;;9.74;100.00;102284.44;5103516;28;20102;-90
2023/04/16 10:23:06;;;;;;;24.10;10.52;;;;;;;9.78;100.00;102291.22;5114453;28;20426;-90
2023/04/16 10:25:39;;;;;;;30.73;11.10;;;;;;;9.77;100.00;102286.78;5095874;28;20059;-90
2023/04/16 10:28:10;;;;;;;30.75;11.73;;;;;;;9.79;100.00;102291.03;5096406;28;20020;-91
2023/04/16 10:30:47;;;;;;;21.98;10.93;;;;;;;9.86;100.00;102295.75;5096083;28;20024;-90
2023/04/16 10:33:18;;;;;;;28.33;11.35;;;;;;;9.85;100.00;102297.63;5096433;28;20110;-91
2023/04/16 10:35:44;;;;;;;24.85;11.32;;;;;;;9.82;100.00;102303.41;5079606;28;20472;-90
2023/04/16 10:38:31;;;;;;;26.77;11.17;;;;;;;9.82;100.00;102301.53;5095609;28;20028;-90
2023/04/16 10:41:01;;;;;;;22.73;10.55;;;;;;;9.74;100.00;102295.28;5096297;28;20024;-91
2023/04/16 10:43:39;;;;;;;25.15;11.85;;;;;;;9.77;100.00;102312.06;5118903;28;20030;-92
2023/04/16 10:46:51;;;;;;;;;;;;;;;;;;;;;
2023/04/16 10:49:25;;;;;;;31.65;11.23;;;;;;;9.75;100.00;102299.69;5115048;28;20016;-91
2023/04/16 10:52:02;;;;;;;24.88;11.15;;;;;;;9.85;100.00;102313.88;5095663;28;20106;-90
2023/04/16 10:54:33;;;;;;;24.60;11.45;;;;;;;9.78;100.00;102296.63;5095935;28;20032;-91
2023/04/16 10:57:03;;;;;;;24.23;12.18;;;;;;;9.81;100.00;102298.97;5096815;28;20062;-90
2023/04/16 10:59:35;;;;;;;23.98;11.23;;;;;;;9.82;100.00;102290.69;5095673;28;20039;-91
2023/04/16 11:02:13;;;;;;;28.20;11.93;;;;;;;9.91;100.00;102302.34;5114264;28;20058;-91
2023/04/16 11:04:45;;;;;;;26.60;10.93;;;;;;;9.86;100.00;102295.75;5095685;28;20062;-91
2023/04/16 11:07:12;;;;;;;24.02;11.40;;;;;;;9.91;100.00;102307.75;5096859;28;20355;-91
2023/04/16 11:09:52;;;;;;;24.67;11.70;;;;;;;9.86;100.00;102293.88;5096050;28;20036;-91
2023/04/16 11:12:20;;;;;;;22.67;11.93;;;;;;;9.91;100.00;102287.94;5096430;28;20039;-91
2023/04/16 11:14:54;;;;;;;23.67;12.13;;;;;;;10.00;100.00;102295.84;5096395;28;20027;-91
2023/04/16 11:17:20;;;;;;;21.20;10.70;;;;;;;10.14;100.00;102290.69;5096053;28;20032;-91
2023/04/16 11:19:46;;;;;;;21.02;11.02;;;;;;;10.21;100.00;102294.41;5096038;28;20028;-91
2023/04/16 11:22:20;;;;;;;23.42;11.77;;;;;;;10.27;100.00;102301.00;5096102;28;20032;-91
2023/04/16 11:24:54;;;;;;;26.65;11.73;;;;;;;10.24;100.00;102285.91;5096413;28;20039;-91
2023/04/16 11:27:19;;;;;;;21.93;11.63;;;;;;;10.34;100.00;102297.41;5114082;28;20031;-92
2023/04/16 11:30:15;;;;;;;;;;;;;;;;;;;;;
2023/04/16 11:32:43;;;;;;;25.50;11.27;;;;;;;10.52;100.00;102301.72;5114262;28;20023;-91
2023/04/16 11:35:21;;;;;;;17.23;11.02;;;;;;;10.42;100.00;102293.78;5095536;28;20023;-91
2023/04/16 11:37:52;;;;;;;20.63;10.40;;;;;;;10.48;100.00;102297.66;5114433;28;20028;-90
2023/04/16 11:40:17;;;;;;;21.95;10.63;;;;;;;10.51;100.00;102305.44;5096397;28;20364;-91
2023/04/16 11:42:48;;;;;;;22.93;11.40;;;;;;;10.51;100.00;102319.88;5113737;28;20027;-91
2023/04/16 11:45:23;;;;;;;;;;;;;;;;;;;;;
2023/04/16 11:47:56;;;;;;;22.83;10.70;;;;;;;10.44;100.00;102299.91;5114964;28;20039;-91
2023/04/16 11:50:29;;;;;;;20.38;10.35;;;;;;;10.46;100.00;102294.31;5098873;28;20031;-91
2023/04/16 11:53:04;;;;;;;24.63;11.67;;;;;;;10.46;100.00;102303.28;5117251;28;20116;-90
2023/04/16 11:55:39;;;;;;;18.13;10.18;;;;;;;10.44;100.00;102299.06;5099516;28;20036;-90
2023/04/16 11:58:18;;;;;;;21.30;10.32;;;;;;;10.43;100.00;102305.50;5117055;28;20028;-91
2023/04/16 12:00:58;;;;;;;19.10;10.30;;;;;;;10.38;100.00;102307.91;5099242;28;20356;-91
2023/04/16 12:03:38;;;;;;;19.23;10.32;;;;;;;10.32;100.00;102310.28;5117590;28;20104;-91
2023/04/16 12:06:21;;;;;;;20.67;11.10;;;;;;;10.27;100.00;102319.97;5099272;28;20027;-91
2023/04/16 12:08:55;;;;;;;16.23;9.80;;;;;;;10.24;100.00;102323.88;5098958;28;20036;-91
2023/04/16 12:11:37;;;;;;;17.65;10.27;;;;;;;10.30;100.00;102327.75;5098293;28;20031;-91
2023/04/16 12:14:10;;;;;;;16.67;9.25;;;;;;;10.26;100.00;102321.00;5117021;28;20038;-91
2023/04/16 12:17:01;;;;;;;21.05;10.27;;;;;;;10.31;100.00;102327.56;5098280;28;20437;-92
2023/04/16 12:19:32;;;;;;;16.85;10.10;;;;;;;10.40;100.00;102316.72;5117386;28;20071;-92
2023/04/16 12:21:59;;;;;;;22.58;10.25;;;;;;;10.45;100.00;102331.44;5097588;28;20047;-92
2023/04/16 12:24:35;;;;;;;17.75;9.52;;;;;;;10.36;100.00;102329.78;5114730;28;20119;-91
2023/04/16 12:27:01;;;;;;;19.77;9.90;;;;;;;10.32;100.00;102325.72;5114935;28;20030;-92
2023/04/16 12:29:32;;;;;;;16.40;9.77;;;;;;;10.30;100.00;102327.75;5116824;28;20106;-92